Latest Weather Observations for Archerfield

IDQ60801

Issued at 4:02 am EST Friday 29 May 2015 (issued every 30 minutes, with the page automatically refreshed every 10 minutes)

About weather observations | Map of weather stations | Latest weather observations for QLD | Other Formats
Station Details ID: 040211 Name: ARCHERFIELD AIRPORT Lat: -27.57 Lon: 153.01 Height: 12.5 m
Data from the previous 72 hours. | See also: Recent months at Archerfield
Date/Time
EST
Temp
°C
App
Temp
°C
Dew
Point
Rel
Hum
%
Delta-T
°C
Wind Press
QNH
hPa
Press
MSL
hPa
Rain
since 9 am
mm
Dir
 
Spd
km/h
Gust
km/h
Spd
kts
Gust
kts
29/04:00am 12.0 12.1 11.4 96 0.3 SE 2 6 1 3 1023.1 1023.1 0.0
29/03:30am 11.9 11.9 11.3 96 0.3 SSW 2 9 1 5 1023.3 1023.3 0.0
29/03:22am 12.1 12.6 11.5 96 0.3 CALM 0 0 0 0 1023.2 1023.2 0.0
29/03:00am 11.5 11.7 10.4 93 0.6 CALM 0 0 0 0 1023.2 1023.2 0.0
29/02:50am 12.0 12.4 11.2 95 0.4 CALM 0 0 0 0 1023.2 1023.2 0.0
29/02:30am 12.7 13.4 12.1 96 0.3 CALM 0 0 0 0 1023.4 1023.4 0.0
29/02:15am 13.0 13.8 12.5 97 0.3 CALM 0 0 0 0 1023.5 1023.5 0.0
29/02:00am 12.7 13.4 12.1 96 0.3 CALM 0 0 0 0 1023.3 1023.3 0.0
29/01:54am 11.3 11.4 10.0 92 0.7 CALM 0 0 0 0 1023.3 1023.3 0.0
29/01:30am 12.9 12.4 12.1 95 0.4 S 6 7 3 4 1023.4 1023.4 0.0
29/01:00am 13.1 12.7 12.5 96 0.3 SSW 6 7 3 4 1023.6 1023.6 0.0
29/12:30am 13.1 12.7 12.3 95 0.4 SW 6 7 3 4 1023.8 1023.8 0.0
29/12:00am 13.2 12.6 12.3 94 0.5 SW 7 9 4 5 1023.8 1023.8 0.0
 
Date/Time
EST
Temp
°C
App
Temp
°C
Dew
Point
Rel
Hum
%
Delta-T
°C
Wind Press
QNH
hPa
Press
MSL
hPa
Rain
since 9 am
mm
Dir
 
Spd
km/h
Gust
km/h
Spd
kts
Gust
kts
28/11:00pm 14.2 14.1 13.2 94 0.5 SSE 6 11 3 6 1024.2 1024.2 0.0
28/10:30pm 14.4 13.8 13.4 94 0.6 SSW 9 13 5 7 1024.2 1024.2 0.0
28/10:00pm 14.9 14.4 13.8 93 0.6 S 9 11 5 6 1024.1 1024.1 0.0
28/09:30pm 15.3 16.0 13.5 89 1.0 SSE 2 7 1 4 1024.0 1024.0 0.0
28/09:00pm 16.3 17.7 14.3 88 1.1 CALM 0 0 0 0 1024.2 1024.2 0.0
28/08:30pm 16.9 18.6 15.1 89 1.0 CALM 0 0 0 0 1024.0 1024.0 0.0
28/08:00pm 17.2 19.0 15.4 89 1.0 CALM 0 0 0 0 1023.8 1023.8 0.0
28/07:30pm 17.7 19.2 15.7 88 1.2 ENE 2 6 1 3 1023.5 1023.5 0.0
28/07:00pm 17.4 17.7 15.0 86 1.4 NE 7 9 4 5 1023.3 1023.3 0.0
28/06:30pm 16.9 16.2 14.2 84 1.5 NE 11 13 6 7 1023.1 1023.1 0.0
28/06:00pm 18.0 17.3 13.1 73 2.7 ENE 9 13 5 7 1022.9 1022.9 0.0
28/05:30pm 18.8 17.5 13.6 72 3.0 ENE 13 15 7 8 1022.3 1022.2 0.0
28/05:00pm 19.3 18.1 13.9 71 3.1 NE 13 17 7 9 1022.0 1021.9 0.0
28/04:30pm 23.0 23.5 12.9 53 5.8 WSW 2 6 1 3 1021.9 1021.8 0.0
28/04:00pm 23.4 23.1 12.7 51 6.1 SW 6 7 3 4 1021.7 1021.6 0.0
28/03:30pm 23.6 24.0 12.6 50 6.3 WSW 2 9 1 5 1021.7 1021.6 0.0
28/03:00pm 24.1 23.5 12.4 48 6.7 W 7 11 4 6 1021.8 1021.7 0.0
28/02:30pm 24.5 25.1 13.1 49 6.6 SW 2 7 1 4 1021.6 1021.5 0.0
28/02:00pm 23.9 23.4 12.2 48 6.6 W 6 11 3 6 1021.7 1021.6 0.0
28/01:30pm 23.4 23.2 13.0 52 6.0 SW 6 11 3 6 1022.1 1022.0 0.0
28/01:00pm 23.2 23.1 13.4 54 5.7 W 6 11 3 6 1022.3 1022.2 0.0
28/12:30pm 22.3 22.2 13.4 57 5.1 SSW 6 9 3 5 1023.4 1023.4 0.0
28/12:00pm 21.8 22.2 15.4 67 3.8 SW 7 11 4 6 1023.7 1023.7 0.0
28/11:30am 21.0 21.3 16.0 73 3.0 SW 9 17 5 9 1024.3 1024.3 0.0
28/11:00am 20.0 19.2 15.0 73 2.9 WSW 13 19 7 10 1024.6 1024.6 0.0
28/10:30am 18.7 17.3 14.6 77 2.4 WSW 15 19 8 10 1025.1 1025.1 0.0
28/10:00am 17.8 16.9 14.9 83 1.7 WSW 13 19 7 10 1025.3 1025.3 0.0
28/09:30am 16.5 15.4 14.3 87 1.3 WSW 13 15 7 8 1025.2 1025.2 0.0
28/09:23am 16.4 15.9 14.8 90 0.9 WSW 11 17 6 9 1025.3 1025.3 0.0
28/09:00am 15.0 14.5 13.7 92 0.7 W 9 11 5 6 1025.2 1025.2 0.0
28/08:38am 13.9 13.1 12.8 93 0.6 WSW 9 11 5 6 1025.2 1025.2 0.0
28/08:30am 14.2 13.9 13.2 94 0.6 W 7 11 4 6 1025.0 1025.0 0.0
28/08:02am 13.4 12.5 12.5 94 0.5 WSW 9 11 5 6 1024.9 1024.9 0.0
28/08:01am 13.4 12.5 12.5 94 0.5 WSW 9 11 5 6 1024.8 1024.8 0.0
28/08:00am 13.4 12.5 12.5 94 0.5 W 9 11 5 6 1024.8 1024.8 0.0
28/07:47am 13.5 12.6 12.6 94 0.5 W 9 13 5 7 1024.7 1024.7 0.0
28/07:30am 13.1 13.4 12.3 95 0.4 WNW 2 7 1 4 1024.6 1024.6 0.0
28/07:00am 11.4 10.5 10.8 96 0.3 S 6 7 3 4 1023.8 1023.8 0.0
28/06:30am 11.1 10.9 10.6 97 0.3 SSW 2 9 1 5 1023.6 1023.6 0.0
28/06:25am 11.2 11.4 10.7 97 0.3 CALM 0 0 0 0 1023.6 1023.6 0.0
28/06:04am 10.6 10.2 9.8 95 0.4 SSE 2 7 1 4 1023.6 1023.6 0.0
28/06:00am 10.9 10.2 10.1 95 0.4 SSE 4 7 2 4 1023.6 1023.6 0.0
28/05:30am 11.9 10.6 11.3 96 0.3 S 9 11 5 6 1023.3 1023.3 0.0
28/05:00am 11.7 10.9 10.9 95 0.4 S 6 7 3 4 1023.0 1023.0 0.0
28/04:30am 12.3 11.1 11.5 95 0.4 SSW 9 11 5 6 1023.0 1023.0 0.0
28/04:00am 12.6 11.5 12.0 96 0.3 S 9 11 5 6 1023.1 1023.1 0.0
28/03:30am 12.5 11.7 11.7 95 0.4 SSE 7 9 4 5 1023.1 1023.1 0.0
28/03:00am 12.9 11.9 12.3 96 0.3 SSW 9 11 5 6 1023.0 1023.0 0.0
28/02:30am 13.0 13.8 12.4 96 0.3 CALM 0 0 0 0 1022.9 1022.9 0.0
28/02:00am 12.7 13.4 12.1 96 0.3 CALM 0 0 0 0 1023.1 1023.1 0.0
28/01:30am 12.1 12.5 11.3 95 0.4 CALM 0 0 0 0 1023.3 1023.3 0.0
28/01:00am 12.2 11.5 11.4 95 0.4 SSW 6 6 3 3 1023.5 1023.5 0.0
28/12:30am 12.8 12.0 11.7 93 0.6 S 7 9 4 5 1023.3 1023.3 0.0
28/12:00am 13.2 13.5 12.1 93 0.6 S 2 6 1 3 1023.4 1023.4 0.0
 
Date/Time
EST
Temp
°C
App
Temp
°C
Dew
Point
Rel
Hum
%
Delta-T
°C
Wind Press
QNH
hPa
Press
MSL
hPa
Rain
since 9 am
mm
Dir
 
Spd
km/h
Gust
km/h
Spd
kts
Gust
kts
27/11:30pm 13.4 13.0 12.5 94 0.5 S 6 7 3 4 1023.6 1023.6 0.0
27/11:00pm 13.7 13.4 12.6 93 0.6 S 6 6 3 3 1023.6 1023.6 0.0
27/10:30pm 14.3 15.4 13.5 95 0.4 CALM 0 0 0 0 1023.6 1023.6 0.0
27/10:00pm 14.1 15.1 13.1 94 0.5 CALM 0 0 0 0 1023.5 1023.5 0.0
27/09:30pm 13.7 14.4 12.3 91 0.8 CALM 0 0 0 0 1023.5 1023.5 0.0
27/09:00pm 15.4 16.6 13.8 90 0.9 CALM 0 0 0 0 1023.6 1023.6 0.0
27/08:30pm 16.4 17.8 14.4 88 1.1 CALM 0 0 0 0 1023.5 1023.5 0.0
27/08:00pm 16.2 17.5 14.0 87 1.2 CALM 0 6 0 3 1023.5 1023.5 0.0
27/07:30pm 17.4 17.6 14.7 84 1.6 E 7 9 4 5 1023.3 1023.3 0.0
27/07:00pm 17.7 17.5 14.8 83 1.7 E 9 13 5 7 1023.0 1023.0 0.0
27/06:30pm 18.3 17.8 14.8 80 2.0 E 11 15 6 8 1022.6 1022.5 0.0
27/06:00pm 19.3 18.5 15.0 76 2.5 E 13 17 7 9 1022.4 1022.3 0.0
27/05:30pm 19.7 18.7 14.7 73 2.9 E 13 20 7 11 1022.3 1022.2 0.0
27/05:00pm 20.4 19.2 14.1 67 3.6 E 13 15 7 8 1022.1 1022.0 0.0
27/04:30pm 21.2 19.9 13.6 62 4.4 E 13 17 7 9 1021.8 1021.7 0.0
27/04:00pm 22.2 21.3 13.8 59 4.9 E 11 13 6 7 1021.8 1021.7 0.0
27/03:30pm 22.8 21.4 14.4 59 4.9 ENE 15 19 8 10 1021.3 1021.2 0.0
27/03:00pm 22.6 22.3 12.8 54 5.6 WSW 6 9 3 5 1021.5 1021.4 0.0
27/02:30pm 22.3 22.1 13.1 56 5.3 W 6 11 3 6 1021.7 1021.6 0.0
27/02:00pm 23.8 23.8 13.6 52 5.9 SSW 6 11 3 6 1021.8 1021.7 0.0
27/01:30pm 22.3 22.6 13.4 57 5.1 SSE 4 9 2 5 1022.1 1022.0 0.0
27/01:00pm 22.6 21.7 13.7 57 5.2 SSE 11 15 6 8 1022.4 1022.3 0.0
27/12:30pm 22.8 23.0 14.1 58 5.1 NW 6 11 3 6 1022.9 1022.9 0.0
27/12:00pm 21.1 20.4 13.3 61 4.5 SE 9 15 5 8 1023.6 1023.6 0.0
27/11:30am 21.8 21.8 14.2 62 4.4 SE 7 15 4 8 1024.3 1024.3 0.0
27/11:00am 20.8 20.6 13.5 63 4.2 SSE 7 13 4 7 1024.8 1024.8 0.0
27/10:30am 19.9 19.5 14.0 69 3.4 SSW 9 13 5 7 1025.2 1025.2 0.0
27/10:00am 18.9 17.9 13.5 71 3.1 SW 11 15 6 8 1025.5 1025.5 0.0
27/09:30am 17.6 16.8 12.9 74 2.6 SW 9 13 5 7 1025.7 1025.7 0.0
27/09:00am 16.4 15.3 13.1 81 1.8 WSW 11 13 6 7 1025.7 1025.7 0.0
27/08:30am 15.3 14.5 13.0 86 1.3 WSW 9 13 5 7 1025.4 1025.4 0.0
27/08:00am 14.6 14.2 13.1 91 0.8 WSW 7 9 4 5 1025.3 1025.3 0.0
27/07:30am 13.2 13.4 11.8 91 0.7 S 2 7 1 4 1025.0 1025.0 0.0
27/07:00am 11.5 10.9 10.4 93 0.6 W 4 7 2 4 1024.8 1024.8 0.0
27/06:30am 11.9 10.6 11.1 95 0.4 SW 9 11 5 6 1024.7 1024.7 0.0
27/06:00am 12.1 10.9 11.5 96 0.3 SW 9 11 5 6 1024.5 1024.5 0.0
27/05:30am 10.8 9.5 10.0 95 0.4 WSW 7 9 4 5 1024.3 1024.3 0.0
27/05:00am 11.8 10.9 11.2 96 0.3 SSW 7 9 4 5 1024.0 1024.0 0.0
27/04:30am 11.8 10.5 11.2 96 0.3 SW 9 11 5 6 1023.7 1023.7 0.0
27/04:00am 12.1 12.6 11.5 96 0.3 CALM 0 0 0 0 1023.6 1023.6 0.0
27/03:38am 12.2 12.7 11.6 96 0.3 CALM 0 0 0 0 1023.8 1023.8 0.0
27/03:30am 12.0 12.4 11.4 96 0.3 CALM 0 0 0 0 1024.0 1024.0 0.0
27/03:16am 11.4 11.6 10.5 94 0.5 CALM 0 0 0 0 1024.1 1024.1 0.0
27/03:00am 12.3 12.8 11.5 95 0.4 CALM 0 0 0 0 1024.2 1024.2 0.0
27/02:30am 12.6 12.1 12.0 96 0.3 S 6 7 3 4 1024.4 1024.4 0.0
27/02:00am 11.4 10.4 10.3 93 0.6 S 6 9 3 5 1024.4 1024.4 0.0
27/01:30am 11.8 11.6 10.5 92 0.7 SSW 2 7 1 4 1024.3 1024.3 0.0
27/01:00am 12.9 13.5 12.0 94 0.5 CALM 0 0 0 0 1024.4 1024.4 0.0
27/12:30am 13.3 12.8 12.2 93 0.6 S 6 6 3 3 1024.6 1024.6 0.0
27/12:00am 13.6 13.2 12.5 93 0.6 SSW 6 7 3 4 1024.6 1024.6 0.0
 
Date/Time
EST
Temp
°C
App
Temp
°C
Dew
Point
Rel
Hum
%
Delta-T
°C
Wind Press
QNH
hPa
Press
MSL
hPa
Rain
since 9 am
mm
Dir
 
Spd
km/h
Gust
km/h
Spd
kts
Gust
kts
26/11:30pm 14.3 15.2 13.0 92 0.7 CALM 0 0 0 0 1024.7 1024.7 0.0
26/11:00pm 13.7 14.5 12.4 92 0.7 CALM 0 0 0 0 1025.2 1025.2 0.0
26/10:30pm 15.2 16.4 13.9 92 0.7 CALM 0 0 0 0 1025.4 1025.4 0.0
26/10:00pm 14.7 15.7 13.1 90 0.9 CALM 0 0 0 0 1025.6 1025.6 0.0
26/09:30pm 15.5 15.6 13.9 90 0.9 SW 6 7 3 4 1025.5 1025.5 0.0
26/09:00pm 16.1 17.0 12.8 81 1.8 CALM 0 0 0 0 1025.3 1025.3 0.0
26/08:30pm 17.3 18.7 14.4 83 1.7 CALM 0 0 0 0 1025.5 1025.5 0.0
26/08:00pm 17.2 18.3 13.5 79 2.1 CALM 0 0 0 0 1025.7 1025.7 0.0
26/07:30pm 18.1 17.9 14.6 80 2.0 SE 9 9 5 5 1025.7 1025.7 0.0
26/07:00pm 18.4 18.2 14.7 79 2.1 SE 9 13 5 7 1025.5 1025.5 0.0
26/06:30pm 18.9 18.7 14.6 76 2.5 ESE 9 13 5 7 1025.5 1025.5 0.0
26/06:00pm 19.2 18.9 14.5 74 2.7 ESE 9 13 5 7 1025.2 1025.2 0.0
26/05:30pm 19.3 18.1 13.9 71 3.1 ESE 13 17 7 9 1024.7 1024.7 0.0
26/05:00pm 20.0 18.3 13.7 67 3.6 E 15 19 8 10 1024.5 1024.5 0.0
26/04:30pm 20.7 19.4 13.6 64 4.1 ESE 13 17 7 9 1024.5 1024.5 0.0
26/04:00pm 21.2 19.7 13.1 60 4.6 SE 13 17 7 9 1024.1 1024.1 0.0
26/03:30pm 22.1 21.7 12.9 56 5.3 S 7 15 4 8 1023.9 1023.9 0.0
26/03:00pm 22.0 22.2 13.1 57 5.1 SW 4 7 2 4 1024.2 1024.2 0.0
26/02:30pm 22.1 21.7 12.4 54 5.5 S 6 11 3 6 1024.5 1024.5 0.0
26/02:00pm 22.0 22.4 12.5 54 5.4 SE 2 7 1 4 1024.9 1024.9 0.0
26/01:30pm 21.6 20.7 12.7 57 5.1 SW 9 15 5 8 1025.3 1025.3 0.0
26/01:00pm 21.6 21.1 12.7 57 5.0 SSE 7 13 4 7 1025.4 1025.4 0.0
26/12:30pm 22.2 21.9 13.3 57 5.1 S 7 13 4 7 1025.7 1025.7 0.0
26/12:00pm 21.8 21.7 13.4 59 4.8 SW 6 11 3 6 1026.7 1026.7 0.0
26/11:30am 21.4 21.2 13.6 61 4.5 S 7 15 4 8 1027.2 1027.2 0.0
26/11:00am 20.6 19.6 13.3 63 4.1 W 11 17 6 9 1027.8 1027.8 0.0
26/10:30am 19.5 17.9 12.7 65 3.8 W 13 17 7 9 1028.1 1028.1 0.0
26/10:00am 18.8 17.6 12.8 68 3.3 WSW 11 17 6 9 1028.3 1028.3 0.0
26/09:30am 17.6 16.8 12.9 74 2.6 SW 9 13 5 7 1028.2 1028.2 0.0
26/09:00am 16.3 15.4 12.5 78 2.1 WSW 9 13 5 7 1028.6 1028.6 0.0
26/08:30am 14.8 13.7 12.1 84 1.5 WSW 9 15 5 8 1028.7 1028.7 0.0
26/08:00am 14.1 14.8 12.1 88 1.1 CALM 0 7 0 4 1028.9 1028.9 0.0
26/07:30am 12.8 11.6 11.5 92 0.7 SW 9 11 5 6 1028.9 1028.9 0.0
26/07:00am 11.4 9.9 10.5 94 0.5 SSW 9 11 5 6 1028.8 1028.8 0.0
26/06:30am 11.2 9.6 10.3 94 0.5 S 9 11 5 6 1028.4 1028.4 0.0
26/06:00am 11.2 10.0 10.3 94 0.5 SSW 7 9 4 5 1028.2 1028.2 0.0
26/05:30am 11.3 9.8 10.5 95 0.4 S 9 11 5 6 1028.0 1028.0 0.0
26/05:00am 10.9 9.8 10.0 94 0.5 SSW 6 7 3 4 1027.7 1027.7 0.0
26/04:30am 11.3 10.2 10.5 95 0.4 SSW 7 9 4 5 1027.8 1027.8 0.0

Other Formats:

Comma delimited format used in spreadsheet applications
http://www.bom.gov.au/fwo/IDQ60801/IDQ60801.94575.axf

JavaScript Object Notation format (JSON) in row-major order
http://www.bom.gov.au/fwo/IDQ60801/IDQ60801.94575.json